Time;durP1;ratioP1;P1;durP2;ratioP2;P2;SDS_P1;SDS_P2;PMS_P1;PMS_P2;Temp;Humidity;BMP_temperature;BMP_pressure;BME280_temperature;BME280_humidity;BME280_pressure;Samples;Min_cycle;Max_cycle;Signal;HPM_P1;HPM_P2
2022/03/18 00:02:17;;;;;;;20.47;5.03;;;1.90;91.00;;;;;;5035322;28;20181;-85
2022/03/18 00:04:43;;;;;;;23.57;5.83;;;1.90;90.90;;;;;;5017229;28;20172;-86
2022/03/18 00:07:09;;;;;;;20.33;5.83;;;1.80;90.80;;;;;;5017399;28;20198;-85
2022/03/18 00:09:34;;;;;;;14.63;5.00;;;1.80;90.70;;;;;;5016991;28;20176;-86
2022/03/18 00:12:00;;;;;;;25.40;5.43;;;1.80;90.60;;;;;;5035040;28;20217;-85
2022/03/18 00:14:26;;;;;;;22.30;5.77;;;1.80;90.60;;;;;;5034779;28;20183;-86
2022/03/18 00:16:52;;;;;;;14.50;5.07;;;1.80;90.60;;;;;;5017434;28;20212;-86
2022/03/18 00:19:18;;;;;;;22.33;5.27;;;1.70;90.40;;;;;;5035065;28;20184;-86
2022/03/18 00:21:43;;;;;;;17.23;4.47;;;1.70;90.30;;;;;;5016493;28;20606;-85
2022/03/18 00:24:09;;;;;;;20.83;5.73;;;1.60;90.30;;;;;;5034913;28;20168;-85
2022/03/18 00:26:36;;;;;;;25.63;5.87;;;1.40;90.30;;;;;;5035074;28;20196;-85
2022/03/18 00:29:02;;;;;;;27.63;5.23;;;1.30;90.10;;;;;;5017451;28;20179;-86
2022/03/18 00:31:29;;;;;;;18.60;4.97;;;1.30;90.10;;;;;;5034429;28;20662;-87
2022/03/18 00:33:55;;;;;;;26.57;5.27;;;1.30;90.20;;;;;;5016679;28;20183;-86
2022/03/18 00:36:20;;;;;;;22.43;5.07;;;1.30;90.20;;;;;;5034407;28;20212;-87
2022/03/18 00:38:46;;;;;;;24.57;4.53;;;1.30;90.20;;;;;;5016788;28;20203;-86
2022/03/18 00:41:11;;;;;;;24.17;5.27;;;1.30;90.10;;;;;;5034411;28;20179;-86
2022/03/18 00:43:37;;;;;;;20.27;5.63;;;1.30;90.00;;;;;;5034050;28;20535;-86
2022/03/18 00:46:02;;;;;;;15.37;4.30;;;1.20;90.00;;;;;;5034400;28;20176;-85
2022/03/18 00:53:56;;;;;;;14.50;5.43;;;1.10;89.90;;;;;;5035206;28;20169;-86
2022/03/18 00:56:21;;;;;;;17.10;6.70;;;1.10;90.00;;;;;;5034314;28;20191;-87
2022/03/18 00:58:47;;;;;;;15.93;5.67;;;1.00;90.10;;;;;;5034305;28;20304;-86
2022/03/18 01:01:13;;;;;;;19.93;8.20;;;0.90;90.20;;;;;;5016498;28;20623;-86
2022/03/18 01:03:38;;;;;;;21.00;7.10;;;1.00;90.40;;;;;;5033690;28;20176;-88
2022/03/18 01:06:04;;;;;;;26.13;7.97;;;1.00;90.40;;;;;;5015815;28;20171;-88
2022/03/18 01:08:30;;;;;;;21.60;7.57;;;1.00;90.40;;;;;;5033486;28;20608;-88
2022/03/18 01:10:55;;;;;;;18.17;6.73;;;1.00;90.30;;;;;;5033415;28;20201;-88
2022/03/18 01:13:22;;;;;;;17.27;6.17;;;1.00;90.30;;;;;;5015739;28;20181;-88
2022/03/18 01:15:47;;;;;;;21.53;6.73;;;1.10;90.30;;;;;;5015495;28;20267;-87
2022/03/18 01:18:13;;;;;;;22.10;5.90;;;1.10;90.20;;;;;;5015600;28;20349;-88
2022/03/18 01:20:38;;;;;;;23.93;7.83;;;1.10;90.10;;;;;;5033464;28;20171;-89
2022/03/18 01:23:07;;;;;;;22.47;7.73;;;1.10;90.20;;;;;;5015559;28;20171;-89
2022/03/18 01:25:33;;;;;;;17.73;6.97;;;1.10;90.20;;;;;;5015496;28;20245;-89
2022/03/18 01:28:01;;;;;;;22.43;6.77;;;1.10;90.30;;;;;;5015327;28;20192;-90
2022/03/18 01:30:30;;;;;;;21.50;6.97;;;1.20;90.50;;;;;;5033496;28;20260;-90
2022/03/18 01:32:56;;;;;;;23.37;6.10;;;1.20;90.50;;;;;;5015272;28;20176;-90
2022/03/18 01:35:22;;;;;;;21.17;6.43;;;1.20;90.60;;;;;;5015457;28;20613;-90
2022/03/18 01:37:48;;;;;;;21.43;5.20;;;1.20;90.70;;;;;;5015236;28;20272;-90
2022/03/18 01:40:13;;;;;;;21.73;5.77;;;1.10;90.70;;;;;;5015406;28;20169;-89
2022/03/18 01:42:39;;;;;;;27.33;6.03;;;1.10;90.80;;;;;;5015429;28;20172;-86
2022/03/18 01:45:06;;;;;;;25.07;6.37;;;1.10;90.80;;;;;;5015842;28;20226;-87
2022/03/18 01:47:32;;;;;;;22.63;6.97;;;1.20;91.00;;;;;;5033458;28;20718;-87
2022/03/18 01:49:58;;;;;;;29.70;6.23;;;1.30;91.10;;;;;;5015844;28;20186;-88
2022/03/18 01:52:24;;;;;;;18.43;5.60;;;1.30;91.20;;;;;;5015812;28;20211;-87
2022/03/18 01:54:51;;;;;;;26.83;6.10;;;1.20;91.20;;;;;;5033400;28;20184;-86
2022/03/18 01:57:24;;;;;;;19.13;6.27;;;1.00;91.30;;;;;;5033095;28;20736;-87
2022/03/18 01:59:51;;;;;;;30.53;13.40;;;0.90;91.40;;;;;;5033286;28;20173;-86
2022/03/18 02:02:17;;;;;;;20.67;7.37;;;1.00;91.70;;;;;;5015543;28;20192;-86
2022/03/18 02:04:44;;;;;;;18.77;7.00;;;1.00;91.70;;;;;;5033088;28;20545;-87
2022/03/18 02:07:10;;;;;;;22.27;7.07;;;1.10;91.80;;;;;;5015650;28;20206;-86
2022/03/18 02:09:36;;;;;;;21.47;6.73;;;1.10;91.80;;;;;;5015698;28;20183;-86
2022/03/18 02:12:04;;;;;;;23.10;6.27;;;1.00;91.80;;;;;;5033043;28;20301;-86
2022/03/18 02:14:33;;;;;;;18.57;6.40;;;1.10;91.80;;;;;;5032985;28;20179;-85
2022/03/18 02:17:00;;;;;;;18.57;5.43;;;1.10;91.90;;;;;;5033018;28;20617;-88
2022/03/18 02:19:26;;;;;;;20.50;5.17;;;1.10;91.80;;;;;;5033218;28;20179;-88
2022/03/18 02:21:54;;;;;;;24.63;5.90;;;1.10;91.80;;;;;;5015446;28;20176;-87
2022/03/18 02:24:20;;;;;;;16.07;5.13;;;1.00;91.70;;;;;;5015471;28;20271;-88
2022/03/18 02:26:50;;;;;;;20.67;5.57;;;1.00;91.70;;;;;;5033091;28;20195;-89
2022/03/18 02:29:20;;;;;;;18.50;5.13;;;1.10;91.70;;;;;;5016331;28;20256;-88
2022/03/18 02:31:46;;;;;;;27.50;6.57;;;1.00;91.60;;;;;;5033187;28;20581;-88
2022/03/18 02:34:12;;;;;;;26.23;6.03;;;1.00;91.60;;;;;;5015524;28;20180;-88
2022/03/18 02:36:38;;;;;;;25.43;7.20;;;1.00;91.60;;;;;;5032814;28;20216;-88
2022/03/18 02:39:04;;;;;;;20.50;6.17;;;1.00;91.60;;;;;;5033033;28;20251;-88
2022/03/18 02:41:32;;;;;;;21.20;5.40;;;1.00;91.60;;;;;;5032929;28;20165;-88
2022/03/18 02:43:58;;;;;;;21.93;6.43;;;1.00;91.50;;;;;;5015425;28;20232;-88
2022/03/18 02:46:24;;;;;;;23.63;5.83;;;1.00;91.50;;;;;;5018744;28;20393;-88
2022/03/18 02:48:49;;;;;;;21.87;6.47;;;1.00;91.60;;;;;;5036446;28;20287;-88
2022/03/18 02:51:15;;;;;;;18.93;6.07;;;1.00;91.50;;;;;;5019001;28;20180;-87
2022/03/18 02:53:40;;;;;;;18.50;5.50;;;1.00;91.60;;;;;;5019141;28;20195;-87
2022/03/18 02:56:06;;;;;;;20.10;6.90;;;1.00;91.60;;;;;;5018479;28;20204;-88
2022/03/18 02:58:32;;;;;;;21.00;6.03;;;1.00;91.50;;;;;;5018342;28;20214;-88
2022/03/18 03:00:57;;;;;;;14.13;5.50;;;1.00;91.50;;;;;;5018685;28;20191;-88
2022/03/18 03:03:23;;;;;;;16.43;6.37;;;1.00;91.50;;;;;;5036461;28;20228;-88
2022/03/18 03:08:32;;;;;;;19.97;5.87;;;0.90;91.40;;;;;;5036251;28;20244;-88
2022/03/18 03:10:58;;;;;;;17.63;5.60;;;0.80;91.30;;;;;;5018272;28;20175;-88
2022/03/18 03:13:24;;;;;;;16.57;5.50;;;0.70;91.20;;;;;;5018242;28;20183;-88
2022/03/18 03:15:50;;;;;;;17.27;5.50;;;0.70;91.20;;;;;;5018232;28;20188;-87
2022/03/18 03:18:16;;;;;;;19.77;6.53;;;0.70;91.10;;;;;;5018160;28;20237;-88
2022/03/18 03:20:42;;;;;;;15.03;5.50;;;0.70;91.10;;;;;;5035942;28;20205;-88
2022/03/18 03:23:07;;;;;;;21.87;5.50;;;0.70;91.10;;;;;;5018288;28;20180;-88
2022/03/18 03:25:33;;;;;;;28.67;6.10;;;0.70;91.10;;;;;;5018044;28;20180;-88
2022/03/18 03:27:58;;;;;;;22.40;7.17;;;0.70;90.90;;;;;;5017974;28;20199;-88
2022/03/18 03:30:24;;;;;;;22.73;6.80;;;0.60;90.90;;;;;;5017880;28;20559;-88
2022/03/18 03:32:50;;;;;;;22.87;8.10;;;0.60;91.00;;;;;;5035493;28;20179;-88
2022/03/18 03:35:16;;;;;;;20.93;6.93;;;0.50;91.10;;;;;;5017647;28;20269;-88
2022/03/18 03:37:42;;;;;;;19.50;6.47;;;0.50;91.10;;;;;;5053037;23;20231;-92
2022/03/18 03:40:09;;;;;;;19.57;7.07;;;0.50;91.20;;;;;;5038362;28;20217;-91
2022/03/18 03:42:35;;;;;;;20.03;6.43;;;0.40;91.20;;;;;;5038235;28;20183;-91
2022/03/18 03:45:00;;;;;;;22.50;7.90;;;0.40;91.40;;;;;;5038230;28;20557;-91
2022/03/18 03:47:26;;;;;;;23.97;8.23;;;0.50;91.50;;;;;;5038216;28;20255;-92
2022/03/18 03:49:52;;;;;;;23.37;7.73;;;0.50;91.70;;;;;;5038357;28;20175;-92
2022/03/18 03:52:17;;;;;;;20.20;6.73;;;0.50;91.80;;;;;;5038343;28;20191;-94
2022/03/18 03:54:43;;;;;;;16.57;6.80;;;0.50;91.90;;;;;;5037953;28;20249;-93
2022/03/18 03:57:09;;;;;;;27.30;7.90;;;0.30;91.90;;;;;;5037762;28;20214;-93
2022/03/18 03:59:35;;;;;;;24.37;6.83;;;0.30;91.90;;;;;;5038023;28;20178;-94
2022/03/18 04:02:03;;;;;;;19.63;7.93;;;0.30;92.00;;;;;;5037896;28;20188;-91
2022/03/18 04:04:29;;;;;;;29.43;8.03;;;0.30;92.00;;;;;;5037644;28;20182;-91
2022/03/18 04:06:54;;;;;;;26.03;9.07;;;0.40;92.10;;;;;;5037351;28;20203;-91
2022/03/18 04:09:20;;;;;;;11.37;7.73;;;0.40;92.10;;;;;;5037706;28;20552;-91
2022/03/18 04:11:46;;;;;;;21.97;7.10;;;0.30;92.10;;;;;;5037705;28;20180;-93
2022/03/18 04:14:12;;;;;;;19.43;7.90;;;0.30;92.10;;;;;;5037102;28;20170;-91
2022/03/18 04:16:38;;;;;;;18.47;8.43;;;0.50;92.20;;;;;;5037180;28;20273;-92
2022/03/18 04:19:03;;;;;;;16.27;7.40;;;0.50;92.30;;;;;;5037600;28;20176;-91
2022/03/18 04:21:30;;;;;;;25.43;9.23;;;0.50;92.30;;;;;;5038312;28;20172;-94
2022/03/18 04:23:56;;;;;;;27.70;8.73;;;0.50;92.40;;;;;;5037202;28;20177;-94
2022/03/18 04:26:21;;;;;;;24.67;8.93;;;0.50;92.30;;;;;;5037089;28;20177;-93
2022/03/18 04:28:47;;;;;;;18.93;8.37;;;0.40;92.40;;;;;;5037108;28;20179;-93
2022/03/18 04:31:12;;;;;;;22.70;8.57;;;0.40;92.40;;;;;;5037546;28;20173;-94
2022/03/18 04:33:38;;;;;;;20.97;8.10;;;0.50;92.40;;;;;;5037045;28;20184;-94
2022/03/18 04:36:04;;;;;;;24.70;7.80;;;0.40;92.40;;;;;;5036931;28;20326;-94
2022/03/18 04:38:30;;;;;;;20.63;8.33;;;0.50;92.40;;;;;;5037099;28;20212;-94
2022/03/18 04:40:56;;;;;;;22.47;8.43;;;0.60;92.50;;;;;;5036861;28;20202;-93
2022/03/18 04:43:21;;;;;;;25.60;8.70;;;0.50;92.50;;;;;;5037882;28;20172;-94
2022/03/18 04:45:47;;;;;;;22.97;9.20;;;0.60;92.50;;;;;;5037064;28;20272;-93
2022/03/18 04:48:13;;;;;;;17.17;8.63;;;0.50;92.60;;;;;;5036759;28;20209;-94
2022/03/18 04:50:38;;;;;;;19.97;8.53;;;0.40;92.50;;;;;;5036888;28;20173;-93
2022/03/18 04:53:04;;;;;;;25.77;8.67;;;0.30;92.50;;;;;;5036906;28;20233;-94
2022/03/18 04:55:29;;;;;;;23.50;8.07;;;0.30;92.50;;;;;;5036343;28;20550;-94
2022/03/18 04:57:55;;;;;;;30.70;9.27;;;0.30;92.50;;;;;;5036717;28;20209;-94
2022/03/18 05:00:24;;;;;;;25.40;9.17;;;0.30;92.60;;;;;;5036591;28;20177;-94
2022/03/18 05:02:50;;;;;;;18.00;8.40;;;0.30;92.60;;;;;;5036347;28;20673;-93
2022/03/18 05:05:25;;;;;;;29.77;9.13;;;0.30;92.60;;;;;;5036399;28;20178;-93
2022/03/18 05:07:51;;;;;;;30.27;9.10;;;0.30;92.60;;;;;;5035686;28;20192;-94
2022/03/18 05:10:18;;;;;;;22.47;8.80;;;0.30;92.60;;;;;;5036240;28;20218;-93
2022/03/18 05:12:45;;;;;;;19.67;8.30;;;0.30;92.60;;;;;;5036305;28;20183;-93
2022/03/18 05:15:12;;;;;;;15.07;8.27;;;0.30;92.60;;;;;;5036497;28;20188;-94
2022/03/18 05:17:38;;;;;;;17.50;8.93;;;0.30;92.60;;;;;;5036213;28;20728;-93
2022/03/18 05:20:06;;;;;;;24.27;9.03;;;0.30;92.70;;;;;;5053726;28;20196;-93
2022/03/18 05:22:31;;;;;;;32.57;10.30;;;0.30;92.70;;;;;;5035716;28;20183;-93
2022/03/18 05:24:58;;;;;;;25.77;10.17;;;0.30;92.70;;;;;;5036995;28;20168;-93
2022/03/18 05:27:25;;;;;;;25.90;9.97;;;0.30;92.70;;;;;;5036233;28;20222;-93
2022/03/18 05:29:51;;;;;;;27.73;11.63;;;0.30;92.80;;;;;;5035960;28;20174;-93
2022/03/18 05:32:17;;;;;;;30.87;14.50;;;0.40;92.80;;;;;;5036393;28;20250;-93
2022/03/18 05:34:43;;;;;;;38.97;15.07;;;0.60;92.90;;;;;;5035551;28;20180;-93
2022/03/18 05:37:08;;;;;;;31.53;14.10;;;0.50;93.00;;;;;;5035318;28;20724;-93
2022/03/18 05:39:35;;;;;;;29.10;15.40;;;0.50;92.90;;;;;;5053497;28;20175;-93
2022/03/18 05:42:00;;;;;;;34.13;13.10;;;0.50;93.00;;;;;;5035590;28;20198;-92
2022/03/18 05:44:26;;;;;;;32.40;12.80;;;0.50;93.00;;;;;;5035432;28;20177;-93
2022/03/18 05:46:52;;;;;;;28.67;12.00;;;0.50;93.00;;;;;;5035402;28;20200;-93
2022/03/18 05:49:18;;;;;;;26.23;11.63;;;0.50;93.00;;;;;;5053167;28;20160;-93
2022/03/18 05:51:45;;;;;;;35.13;11.17;;;0.40;93.00;;;;;;5035518;28;20172;-93
2022/03/18 05:54:11;;;;;;;38.63;12.37;;;0.50;93.10;;;;;;5053409;28;20185;-93
2022/03/18 05:56:55;;;;;;;28.53;11.77;;;0.40;93.00;;;;;;5035247;28;20196;-93
2022/03/18 05:59:22;;;;;;;25.83;10.87;;;0.40;93.10;;;;;;5053401;28;20610;-93
2022/03/18 06:01:48;;;;;;;33.63;11.07;;;0.50;93.10;;;;;;5035424;28;20717;-93
2022/03/18 06:04:14;;;;;;;28.93;10.80;;;0.50;93.10;;;;;;5035368;28;20200;-93
2022/03/18 06:06:44;;;;;;;27.07;9.30;;;0.50;93.10;;;;;;5035093;28;20194;-93
2022/03/18 06:11:55;;;;;;;23.27;10.70;;;0.50;93.10;;;;;;5053346;28;20186;-93
2022/03/18 06:14:25;;;;;;;20.90;9.53;;;0.50;93.20;;;;;;5035358;28;20176;-93
2022/03/18 06:17:01;;;;;;;25.97;10.27;;;0.50;93.20;;;;;;5035096;28;20197;-93
2022/03/18 06:19:28;;;;;;;30.73;10.67;;;0.60;93.20;;;;;;5036087;28;20624;-93
2022/03/18 06:21:54;;;;;;;28.33;11.03;;;0.70;93.20;;;;;;5056815;28;20172;-93
2022/03/18 06:24:21;;;;;;;26.57;10.80;;;0.80;93.30;;;;;;5038979;28;20600;-93
2022/03/18 06:26:51;;;;;;;22.30;10.97;;;0.80;93.30;;;;;;5056839;28;20196;-93
2022/03/18 06:29:19;;;;;;;29.70;11.33;;;0.80;93.30;;;;;;5039211;28;20172;-93
2022/03/18 06:31:44;;;;;;;27.07;10.87;;;0.80;93.30;;;;;;5038840;28;20179;-93
2022/03/18 06:34:11;;;;;;;30.57;11.40;;;0.80;93.40;;;;;;5056725;28;20596;-93
2022/03/18 06:36:38;;;;;;;24.90;10.60;;;0.80;93.40;;;;;;5038439;28;20204;-93
2022/03/18 06:39:05;;;;;;;27.20;11.47;;;0.90;93.50;;;;;;5038547;28;20201;-93
2022/03/18 06:41:31;;;;;;;24.33;11.60;;;0.90;93.50;;;;;;5038904;28;20169;-92
2022/03/18 06:43:57;;;;;;;28.73;12.53;;;0.90;93.50;;;;;;5039068;28;20516;-93
2022/03/18 06:46:23;;;;;;;23.50;11.80;;;0.90;93.50;;;;;;5038640;28;20186;-93
2022/03/18 06:48:49;;;;;;;28.17;12.23;;;1.00;93.60;;;;;;5038779;28;20197;-93
2022/03/18 06:51:15;;;;;;;20.33;10.20;;;1.00;93.50;;;;;;5038901;28;20173;-93
2022/03/18 06:53:41;;;;;;;31.00;11.57;;;1.00;93.50;;;;;;5038722;28;20176;-93
2022/03/18 06:56:07;;;;;;;32.90;12.07;;;1.00;93.50;;;;;;5038726;28;20186;-93
2022/03/18 06:58:33;;;;;;;25.90;11.07;;;1.10;93.50;;;;;;5038897;28;20295;-93
2022/03/18 07:00:59;;;;;;;31.47;10.60;;;1.20;93.50;;;;;;5039136;28;20167;-93
2022/03/18 07:03:25;;;;;;;32.03;12.13;;;1.20;93.50;;;;;;5039116;28;20177;-93
2022/03/18 07:05:50;;;;;;;23.70;11.07;;;1.20;93.50;;;;;;5039075;28;20181;-93
2022/03/18 07:08:16;;;;;;;26.23;10.90;;;1.30;93.50;;;;;;5039085;28;20199;-93
2022/03/18 07:10:42;;;;;;;26.57;11.20;;;1.30;93.50;;;;;;5039893;28;20181;-93
2022/03/18 07:13:07;;;;;;;29.80;12.03;;;1.30;93.50;;;;;;5057090;28;20179;-94
2022/03/18 07:15:33;;;;;;;22.57;13.23;;;1.40;93.50;;;;;;5039651;28;20651;-93
2022/03/18 07:17:59;;;;;;;25.43;11.67;;;1.50;93.50;;;;;;5040047;28;20247;-93
2022/03/18 07:20:30;;;;;;;33.83;13.10;;;1.50;93.50;;;;;;5058685;28;20197;-93
2022/03/18 07:23:03;;;;;;;25.70;12.00;;;1.60;93.50;;;;;;5041007;28;20169;-93
2022/03/18 07:25:29;;;;;;;25.47;12.60;;;1.60;93.50;;;;;;5039911;28;20178;-92
2022/03/18 07:27:55;;;;;;;23.07;12.80;;;1.70;93.50;;;;;;5039740;28;20290;-93
2022/03/18 07:30:21;;;;;;;24.60;12.13;;;1.70;93.50;;;;;;5039504;28;20267;-93
2022/03/18 07:32:47;;;;;;;30.90;12.03;;;1.80;93.60;;;;;;5039557;28;20198;-93
2022/03/18 07:35:14;;;;;;;33.37;13.33;;;1.70;93.50;;;;;;5039405;28;20183;-93
2022/03/18 07:37:40;;;;;;;29.20;12.47;;;1.80;93.50;;;;;;5039129;28;20219;-93
2022/03/18 07:40:09;;;;;;;28.50;12.10;;;1.80;93.50;;;;;;5039257;28;20182;-93
2022/03/18 07:42:46;;;;;;;26.90;12.00;;;1.80;93.50;;;;;;5039648;28;20176;-93
2022/03/18 07:45:13;;;;;;;30.60;11.20;;;1.80;93.50;;;;;;5039307;28;20582;-93
2022/03/18 07:47:39;;;;;;;29.63;11.53;;;1.80;93.50;;;;;;5039242;28;20206;-93
2022/03/18 07:50:05;;;;;;;33.03;11.97;;;1.90;93.50;;;;;;5040839;28;20186;-94
2022/03/18 07:52:31;;;;;;;27.10;12.10;;;2.00;93.50;;;;;;5045211;28;20193;-93
2022/03/18 07:54:57;;;;;;;30.50;12.77;;;2.10;93.60;;;;;;5049721;28;20191;-93
2022/03/18 07:57:23;;;;;;;33.43;12.63;;;2.30;93.60;;;;;;5051345;28;20227;-94
2022/03/18 07:59:49;;;;;;;27.00;12.40;;;2.30;93.60;;;;;;5052139;28;20185;-94
2022/03/18 08:02:14;;;;;;;30.47;13.03;;;2.50;93.70;;;;;;5044500;28;20212;-94
2022/03/18 08:04:40;;;;;;;27.87;12.47;;;2.60;93.70;;;;;;5050706;28;20189;-94
2022/03/18 08:07:06;;;;;;;24.30;11.87;;;2.80;93.70;;;;;;5053307;28;20204;-94
2022/03/18 08:09:31;;;;;;;33.93;12.87;;;2.80;93.70;;;;;;5050876;28;20208;-94
2022/03/18 08:11:58;;;;;;;23.73;12.73;;;3.00;93.70;;;;;;5049912;28;20238;-92
2022/03/18 08:14:24;;;;;;;31.10;12.27;;;3.20;93.80;;;;;;5048779;28;20179;-94
2022/03/18 08:16:50;;;;;;;25.07;13.67;;;3.40;93.60;;;;;;5053531;28;20200;-94
2022/03/18 08:19:18;;;;;;;32.60;13.10;;;3.50;93.60;;;;;;5050764;28;20195;-93
2022/03/18 08:21:44;;;;;;;28.97;14.07;;;3.70;93.60;;;;;;5070045;28;20179;-94
2022/03/18 08:24:09;;;;;;;31.87;13.63;;;3.80;93.60;;;;;;5047840;28;20241;-93
2022/03/18 08:26:37;;;;;;;34.47;13.90;;;4.00;93.60;;;;;;5037298;28;20205;-93
2022/03/18 08:29:07;;;;;;;30.50;16.07;;;4.20;93.60;;;;;;5042527;28;20184;-93
2022/03/18 08:31:33;;;;;;;39.37;14.37;;;4.50;93.70;;;;;;5044913;28;20233;-93
2022/03/18 08:33:59;;;;;;;27.43;13.20;;;4.60;93.40;;;;;;5049421;28;20199;-93
2022/03/18 08:36:25;;;;;;;32.33;14.60;;;4.70;93.30;;;;;;5049499;28;20202;-94
2022/03/18 08:38:50;;;;;;;36.27;15.23;;;4.70;93.00;;;;;;5052854;28;20207;-93
2022/03/18 08:41:16;;;;;;;22.47;13.57;;;4.90;92.80;;;;;;5057765;28;20187;-93
2022/03/18 08:43:41;;;;;;;32.87;13.50;;;4.90;92.40;;;;;;5053343;28;20180;-92
2022/03/18 08:46:07;;;;;;;32.63;13.70;;;5.00;92.00;;;;;;5058805;28;20207;-93
2022/03/18 08:48:33;;;;;;;26.73;12.93;;;5.20;91.80;;;;;;5060174;28;20193;-93
2022/03/18 08:50:58;;;;;;;26.97;11.03;;;5.20;91.30;;;;;;5060573;28;20191;-94
2022/03/18 08:53:24;;;;;;;32.10;12.40;;;5.30;90.90;;;;;;5060454;28;20173;-93
2022/03/18 08:55:50;;;;;;;23.20;12.00;;;5.30;90.90;;;;;;5061688;28;20174;-93
2022/03/18 08:58:16;;;;;;;26.57;11.50;;;5.60;90.60;;;;;;5061821;28;20218;-93
2022/03/18 09:00:41;;;;;;;30.13;12.70;;;5.70;90.30;;;;;;5062213;28;20209;-92
2022/03/18 09:03:07;;;;;;;26.33;12.93;;;5.80;90.50;;;;;;5062156;28;20175;-92
2022/03/18 09:05:36;;;;;;;28.07;12.87;;;5.90;90.10;;;;;;5062066;28;20159;-91
2022/03/18 09:08:01;;;;;;;24.97;11.57;;;6.00;90.00;;;;;;5061511;28;20189;-93
2022/03/18 09:10:27;;;;;;;24.33;13.00;;;6.10;89.90;;;;;;5060868;28;20193;-92
2022/03/18 09:12:58;;;;;;;25.13;12.37;;;6.10;89.40;;;;;;5062133;28;20166;-93
2022/03/18 09:15:25;;;;;;;20.60;10.07;;;6.30;89.20;;;;;;5062062;28;20159;-93
2022/03/18 09:17:50;;;;;;;21.43;10.23;;;6.40;89.10;;;;;;5061822;28;20278;-91
2022/03/18 09:20:16;;;;;;;23.93;11.27;;;6.50;88.10;;;;;;5061732;28;20189;-92
2022/03/18 09:22:42;;;;;;;26.30;11.07;;;6.50;87.40;;;;;;5061967;28;20183;-93
2022/03/18 09:25:14;;;;;;;26.50;11.47;;;6.70;87.70;;;;;;5061696;28;20163;-93
2022/03/18 09:27:40;;;;;;;22.73;11.23;;;7.00;88.00;;;;;;5078807;28;20184;-92
2022/03/18 09:30:10;;;;;;;27.60;12.53;;;7.00;87.60;;;;;;5076759;28;20186;-92
2022/03/18 09:32:36;;;;;;;26.00;12.57;;;7.30;88.10;;;;;;5054557;28;20172;-93
2022/03/18 09:35:05;;;;;;;26.63;12.10;;;7.30;87.70;;;;;;5052988;23;20225;-92
2022/03/18 09:37:31;;;;;;;24.57;12.20;;;7.50;87.70;;;;;;5012265;28;20212;-91
2022/03/18 09:39:57;;;;;;;23.53;12.67;;;7.50;87.30;;;;;;5016504;28;20193;-93
2022/03/18 09:42:23;;;;;;;28.83;12.23;;;7.50;86.60;;;;;;5011115;28;20185;-91
2022/03/18 09:45:00;;;;;;;23.63;11.67;;;7.60;86.70;;;;;;5254944;23;20248;-92
2022/03/18 09:47:28;;;;;;;24.47;12.97;;;7.80;86.50;;;;;;5091318;28;20228;-91
2022/03/18 09:49:53;;;;;;;24.40;12.50;;;8.20;86.90;;;;;;5101662;28;20152;-91
2022/03/18 09:52:20;;;;;;;28.07;13.00;;;8.10;85.50;;;;;;5101754;28;20177;-90
2022/03/18 09:54:46;;;;;;;23.00;12.30;;;8.30;85.80;;;;;;5104643;28;20162;-92
2022/03/18 09:57:12;;;;;;;33.17;13.67;;;8.40;85.60;;;;;;5105661;28;20202;-91
2022/03/18 09:59:37;;;;;;;34.00;13.43;;;8.50;84.60;;;;;;5105710;28;20181;-91
2022/03/18 10:02:28;;;;;;;24.27;12.77;;;8.70;85.50;;;;;;5105640;28;20170;-92
2022/03/18 10:04:59;;;;;;;27.80;13.33;;;8.80;84.70;;;;;;5114359;22;20224;-86
2022/03/18 10:07:26;;;;;;;30.23;13.40;;;9.10;85.60;;;;;;5020130;28;20235;-88
2022/03/18 10:10:15;;;;;;;30.17;12.13;;;9.20;85.00;;;;;;5020046;28;20180;-87
2022/03/18 10:12:44;;;;;;;26.83;12.37;;;9.40;85.20;;;;;;5019810;28;20200;-88
2022/03/18 10:15:30;;;;;;;28.77;12.27;;;9.40;83.50;;;;;;5037748;28;20197;-87
2022/03/18 10:17:57;;;;;;;25.73;12.33;;;9.50;83.50;;;;;;5037880;28;20202;-87
2022/03/18 10:20:24;;;;;;;28.23;12.97;;;9.60;82.60;;;;;;5019434;28;20173;-88
2022/03/18 10:22:54;;;;;;;20.40;11.13;;;9.60;82.20;;;;;;5019380;28;20183;-88
2022/03/18 10:25:39;;;;;;;35.83;12.47;;;9.70;81.30;;;;;;5019494;28;20192;-87
2022/03/18 10:28:06;;;;;;;23.53;11.17;;;9.80;82.00;;;;;;5037471;28;20180;-87
2022/03/18 10:30:32;;;;;;;24.97;10.43;;;10.00;81.70;;;;;;5019727;28;20654;-88
2022/03/18 10:32:58;;;;;;;23.43;11.30;;;10.20;81.70;;;;;;5018946;28;20200;-87
2022/03/18 10:38:26;;;;;;;21.90;10.87;;;10.20;80.20;;;;;;5037351;28;20246;-87
2022/03/18 10:40:53;;;;;;;27.73;11.13;;;10.10;80.30;;;;;;5037071;28;20153;-87
2022/03/18 10:43:20;;;;;;;28.37;11.23;;;10.10;79.70;;;;;;5019195;28;20203;-87
2022/03/18 10:46:01;;;;;;;25.60;11.53;;;10.00;79.80;;;;;;5036748;28;20188;-86
2022/03/18 10:48:27;;;;;;;25.33;10.97;;;10.30;80.50;;;;;;5019199;28;20185;-86
2022/03/18 10:51:07;;;;;;;29.37;10.27;;;10.50;80.10;;;;;;5019030;28;20612;-87
2022/03/18 10:53:34;;;;;;;30.27;12.53;;;10.50;78.60;;;;;;5019122;28;20662;-86
2022/03/18 10:56:01;;;;;;;31.73;11.80;;;10.60;78.80;;;;;;5018907;28;20196;-86
2022/03/18 10:58:31;;;;;;;28.90;11.37;;;11.00;79.80;;;;;;5018511;28;20204;-88
2022/03/18 11:00:59;;;;;;;23.27;10.80;;;11.30;79.20;;;;;;5036259;28;20153;-88
2022/03/18 11:03:26;;;;;;;33.50;12.73;;;11.40;77.70;;;;;;5018717;28;20172;-89
2022/03/18 11:05:52;;;;;;;24.30;10.90;;;11.70;79.20;;;;;;5035221;28;20223;-88
2022/03/18 11:08:22;;;;;;;27.43;10.67;;;11.30;76.80;;;;;;5018285;28;20176;-88
2022/03/18 11:11:07;;;;;;;20.03;10.03;;;11.40;77.10;;;;;;5018253;28;20169;-89
2022/03/18 11:13:53;;;;;;;24.17;10.83;;;11.60;77.20;;;;;;5036151;28;20653;-88
2022/03/18 11:16:29;;;;;;;26.33;9.10;;;11.40;76.30;;;;;;5018073;28;20555;-87
2022/03/18 11:18:56;;;;;;;26.77;10.17;;;11.70;76.30;;;;;;5036282;28;20263;-89
2022/03/18 11:21:25;;;;;;;19.33;9.53;;;11.70;76.20;;;;;;5018202;28;20215;-88
2022/03/18 11:23:55;;;;;;;22.30;9.70;;;12.30;78.50;;;;;;5035625;28;20161;-87
2022/03/18 11:26:22;;;;;;;24.70;8.93;;;12.60;77.60;;;;;;5017919;28;20196;-87
2022/03/18 11:29:09;;;;;;;23.73;10.23;;;12.50;74.20;;;;;;5035820;28;20184;-87
2022/03/18 11:31:35;;;;;;;23.60;9.10;;;12.50;74.80;;;;;;5035762;28;20564;-87
2022/03/18 11:34:09;;;;;;;23.27;9.53;;;12.10;72.60;;;;;;5036741;28;20176;-86
2022/03/18 11:36:45;;;;;;;28.70;10.50;;;12.20;75.30;;;;;;5018973;28;20196;-86
2022/03/18 11:39:19;;;;;;;23.97;9.70;;;12.70;75.90;;;;;;5017731;28;20195;-87
2022/03/18 11:41:46;;;;;;;21.77;8.30;;;12.30;73.10;;;;;;5035925;28;20207;-87
2022/03/18 11:44:44;;;;;;;23.40;8.87;;;12.60;72.10;;;;;;5035639;28;20220;-87
2022/03/18 11:47:30;;;;;;;26.73;8.83;;;12.70;73.60;;;;;;5035544;28;20706;-86
2022/03/18 11:49:57;;;;;;;24.87;8.23;;;12.70;73.30;;;;;;5017949;28;20595;-86
2022/03/18 11:52:23;;;;;;;23.00;8.53;;;13.00;72.50;;;;;;5017543;28;20212;-87
2022/03/18 11:54:54;;;;;;;25.70;8.13;;;13.50;73.60;;;;;;5017797;28;20201;-87
2022/03/18 11:57:32;;;;;;;23.40;9.67;;;13.30;69.30;;;;;;5017627;28;20200;-87
2022/03/18 12:00:00;;;;;;;24.33;9.03;;;13.80;71.00;;;;;;5036743;28;20149;-87
2022/03/18 12:02:36;;;;;;;22.60;9.07;;;14.10;69.00;;;;;;5035804;28;20180;-87
2022/03/18 12:05:03;;;;;;;20.77;8.60;;;13.70;69.40;;;;;;5017816;28;20721;-87
2022/03/18 12:07:32;;;;;;;25.90;8.50;;;14.20;67.80;;;;;;5017605;28;20708;-88
2022/03/18 12:10:09;;;;;;;27.10;8.80;;;13.90;69.60;;;;;;5035288;28;20255;-87
2022/03/18 12:12:37;;;;;;;24.93;9.73;;;14.00;68.50;;;;;;5017491;28;20631;-88
2022/03/18 12:15:04;;;;;;;18.90;9.17;;;14.10;70.50;;;;;;5017112;28;20196;-88
2022/03/18 12:17:31;;;;;;;28.97;11.07;;;14.20;68.00;;;;;;5034125;28;20204;-88
2022/03/18 12:20:02;;;;;;;29.87;10.80;;;14.50;69.90;;;;;;5035363;28;20226;-87
2022/03/18 12:22:29;;;;;;;21.70;11.57;;;14.70;68.50;;;;;;5017412;28;20224;-87
2022/03/18 12:24:56;;;;;;;24.52;9.10;;;14.70;68.90;;;;;;5017927;28;20258;-87
2022/03/18 12:27:36;;;;;;;26.75;11.52;;;14.60;69.40;;;;;;5035019;28;20176;-87
2022/03/18 12:30:29;;;;;;;25.40;9.97;;;14.70;69.00;;;;;;5035000;28;20160;-87
2022/03/18 12:32:56;;;;;;;26.58;12.95;;;14.70;67.80;;;;;;5009276;28;20184;-87
2022/03/18 12:35:37;;;;;;;25.80;12.57;;;15.00;69.50;;;;;;5016957;28;20608;-87
2022/03/18 12:38:05;;;;;;;28.95;9.30;;;15.30;68.30;;;;;;5017465;28;20260;-87
2022/03/18 12:40:31;;;;;;;23.58;9.98;;;15.50;68.70;;;;;;5034612;28;20165;-87
2022/03/18 12:42:59;;;;;;;27.35;10.02;;;15.70;67.50;;;;;;5034381;28;20238;-87
2022/03/18 12:45:29;;;;;;;20.55;8.20;;;15.80;66.60;;;;;;5016494;28;20193;-87
2022/03/18 12:48:00;;;;;;;20.13;8.00;;;15.20;66.60;;;;;;5034281;28;20165;-88
2022/03/18 12:50:34;;;;;;;20.92;8.15;;;15.50;66.60;;;;;;5034254;28;20207;-87
2022/03/18 12:53:08;;;;;;;28.90;8.68;;;15.60;65.10;;;;;;5034258;28;20160;-87
2022/03/18 12:55:34;;;;;;;25.63;10.90;;;15.60;65.50;;;;;;5016153;28;20278;-87
2022/03/18 12:57:59;;;;;;;20.20;9.70;;;15.80;66.30;;;;;;5034067;28;20232;-87